KCMI/CMI METAR and TAF weather

Enter ICAO airport designator
Station Type Date Time Source
KCMI METAR 2019/10/23 12:53 UTC NOAA

KCMI 231253Z 20008KT 10SM OVC110 04/01 A3001 RMK AO2 SLP166 T00390011


Station Type Date Time Source
KCMI Decoded METAR 2019/10/23 12:53 UTC NOAA

UNIV OF ILLINOIS-WILLARD, IL, United States (KCMI) 40-02N 088-16W 228M
Oct 23, 2019 - 08:53 AM EDT / 2019.10.23 1253 UTC
Wind: from the SSW (200 degrees) at 9 MPH (8 KT):0
Visibility: 10 mile(s):0
Sky conditions: overcast
Temperature: 39.0 F (3.9 C)
Dew Point: 34.0 F (1.1 C)
Relative Humidity: 81%
Pressure (altimeter): 30.01 in. Hg (1016 hPa)
ob: KCMI 231253Z 20008KT 10SM OVC110 04/01 A3001 RMK AO2 SLP166 T00390011
cycle: 13

Station Type Date Time Source
KCMI TAF 2019/10/23 12:30 UTC NOAA

TAF KCMI 231127Z 2312/2412 20008KT P6SM BKN120
FM231800 20015G24KT P6SM SCT120
FM232300 19014KT P6SM SCT120
FM240800 25010KT P6SM BKN050
FM241000 32012KT P6SM OVC020

Example: see airport list